Nago, Japan
Current Conditions -  °F | °C
As of 11:58 PM on Wednesday 22 Oct 2014 (Local Time) from RODN Reporting Station
Clear Clear  
Wind Chill: 72°   Ceiling: Unl
Heat Index: 72°   Visibility: 10mi
Dew Point: 62°   Wind: 7mph
Humidity: 70%   Direction: 330°NNW
Pressure: 30"   Gusts: NA
Location:  26.59°N, 127.99°E
Report Text: RODN 221458Z AUTO 33006KT 10SM CLR 22/17 A3000 RMK AO2 SLP164 T02230165 402790222 58005 $
Loading
Personal Weather Stations






























Interactive Weather Map
Tropical Storm Tracking
New forecast layout! Learn more

10-Day Weather Forecast

Advertisements
Track Severe Weather on mobile